sensor_id;sensor_type;location;lat;lon;timestamp;P1;durP1;ratioP1;P2;durP2;ratioP2
5521;SDS011;2783;48.730;8.006;2022-09-23T00:00:09;14.90;;;5.70;;
5521;SDS011;2783;48.730;8.006;2022-09-23T00:02:35;11.50;;;4.47;;
5521;SDS011;2783;48.730;8.006;2022-09-23T00:05:00;8.35;;;4.03;;
5521;SDS011;2783;48.730;8.006;2022-09-23T00:07:25;9.77;;;4.18;;
5521;SDS011;2783;48.730;8.006;2022-09-23T00:09:51;11.05;;;3.97;;
5521;SDS011;2783;48.730;8.006;2022-09-23T00:12:16;8.10;;;4.57;;
5521;SDS011;2783;48.730;8.006;2022-09-23T00:14:42;9.20;;;4.45;;
5521;SDS011;2783;48.730;8.006;2022-09-23T00:17:07;6.72;;;4.07;;
5521;SDS011;2783;48.730;8.006;2022-09-23T00:19:33;6.88;;;3.97;;
5521;SDS011;2783;48.730;8.006;2022-09-23T00:21:58;6.97;;;3.90;;
5521;SDS011;2783;48.730;8.006;2022-09-23T00:24:23;8.40;;;4.20;;
5521;SDS011;2783;48.730;8.006;2022-09-23T00:26:49;6.80;;;4.25;;
5521;SDS011;2783;48.730;8.006;2022-09-23T00:29:14;5.82;;;4.63;;
5521;SDS011;2783;48.730;8.006;2022-09-23T00:31:40;7.43;;;3.63;;
5521;SDS011;2783;48.730;8.006;2022-09-23T00:34:06;6.22;;;3.88;;
5521;SDS011;2783;48.730;8.006;2022-09-23T00:36:34;7.95;;;4.00;;
5521;SDS011;2783;48.730;8.006;2022-09-23T00:39:00;5.72;;;3.33;;
5521;SDS011;2783;48.730;8.006;2022-09-23T00:41:28;6.30;;;3.70;;
5521;SDS011;2783;48.730;8.006;2022-09-23T00:43:58;6.93;;;3.63;;
5521;SDS011;2783;48.730;8.006;2022-09-23T00:48:59;6.80;;;3.80;;
5521;SDS011;2783;48.730;8.006;2022-09-23T00:51:37;5.53;;;3.28;;
5521;SDS011;2783;48.730;8.006;2022-09-23T00:54:08;5.78;;;3.40;;
5521;SDS011;2783;48.730;8.006;2022-09-23T00:56:34;8.82;;;4.18;;
5521;SDS011;2783;48.730;8.006;2022-09-23T00:59:02;7.65;;;4.10;;
5521;SDS011;2783;48.730;8.006;2022-09-23T01:01:30;6.20;;;3.53;;
5521;SDS011;2783;48.730;8.006;2022-09-23T01:03:56;5.78;;;3.58;;
5521;SDS011;2783;48.730;8.006;2022-09-23T01:06:22;4.85;;;3.35;;
5521;SDS011;2783;48.730;8.006;2022-09-23T01:08:48;5.63;;;3.53;;
5521;SDS011;2783;48.730;8.006;2022-09-23T01:14:05;6.45;;;3.60;;
5521;SDS011;2783;48.730;8.006;2022-09-23T01:16:54;9.18;;;3.63;;
5521;SDS011;2783;48.730;8.006;2022-09-23T01:25:43;7.15;;;4.20;;
5521;SDS011;2783;48.730;8.006;2022-09-23T01:31:28;6.70;;;3.70;;
5521;SDS011;2783;48.730;8.006;2022-09-23T01:39:19;9.18;;;4.82;;
5521;SDS011;2783;48.730;8.006;2022-09-23T01:41:51;7.75;;;4.03;;
5521;SDS011;2783;48.730;8.006;2022-09-23T01:44:38;5.13;;;3.78;;
5521;SDS011;2783;48.730;8.006;2022-09-23T01:47:17;6.80;;;4.13;;
5521;SDS011;2783;48.730;8.006;2022-09-23T01:50:07;7.82;;;4.38;;
5521;SDS011;2783;48.730;8.006;2022-09-23T01:52:58;7.03;;;3.78;;
5521;SDS011;2783;48.730;8.006;2022-09-23T01:55:30;5.88;;;4.05;;
5521;SDS011;2783;48.730;8.006;2022-09-23T01:58:02;11.60;;;4.35;;
5521;SDS011;2783;48.730;8.006;2022-09-23T02:00:29;6.50;;;4.13;;
5521;SDS011;2783;48.730;8.006;2022-09-23T02:03:09;6.00;;;4.22;;
5521;SDS011;2783;48.730;8.006;2022-09-23T02:05:46;6.07;;;3.78;;
5521;SDS011;2783;48.730;8.006;2022-09-23T02:08:26;9.00;;;4.50;;
5521;SDS011;2783;48.730;8.006;2022-09-23T02:11:17;6.15;;;3.85;;
5521;SDS011;2783;48.730;8.006;2022-09-23T02:13:45;7.15;;;3.60;;
5521;SDS011;2783;48.730;8.006;2022-09-23T02:22:02;8.35;;;4.57;;
5521;SDS011;2783;48.730;8.006;2022-09-23T02:24:35;6.03;;;3.80;;
5521;SDS011;2783;48.730;8.006;2022-09-23T02:29:56;7.38;;;4.38;;
5521;SDS011;2783;48.730;8.006;2022-09-23T02:35:30;8.55;;;4.35;;
5521;SDS011;2783;48.730;8.006;2022-09-23T02:38:51;7.88;;;4.63;;
5521;SDS011;2783;48.730;8.006;2022-09-23T02:41:25;8.10;;;4.50;;
5521;SDS011;2783;48.730;8.006;2022-09-23T02:46:28;8.20;;;4.55;;
5521;SDS011;2783;48.730;8.006;2022-09-23T02:49:10;8.15;;;4.22;;
5521;SDS011;2783;48.730;8.006;2022-09-23T02:51:41;6.28;;;4.47;;
5521;SDS011;2783;48.730;8.006;2022-09-23T02:54:08;7.05;;;4.50;;
5521;SDS011;2783;48.730;8.006;2022-09-23T02:56:39;6.25;;;4.07;;
5521;SDS011;2783;48.730;8.006;2022-09-23T02:59:05;7.50;;;4.25;;
5521;SDS011;2783;48.730;8.006;2022-09-23T03:12:26;6.63;;;4.13;;
5521;SDS011;2783;48.730;8.006;2022-09-23T03:20:32;6.15;;;4.13;;
5521;SDS011;2783;48.730;8.006;2022-09-23T03:23:04;8.63;;;4.28;;
5521;SDS011;2783;48.730;8.006;2022-09-23T03:25:35;7.32;;;4.72;;
5521;SDS011;2783;48.730;8.006;2022-09-23T03:28:02;7.55;;;4.43;;
5521;SDS011;2783;48.730;8.006;2022-09-23T03:30:31;10.48;;;5.47;;
5521;SDS011;2783;48.730;8.006;2022-09-23T03:32:59;8.30;;;5.03;;
5521;SDS011;2783;48.730;8.006;2022-09-23T03:35:28;8.65;;;4.80;;
5521;SDS011;2783;48.730;8.006;2022-09-23T03:38:02;9.27;;;5.32;;
5521;SDS011;2783;48.730;8.006;2022-09-23T03:40:36;9.18;;;5.45;;
5521;SDS011;2783;48.730;8.006;2022-09-23T03:43:06;7.90;;;4.70;;
5521;SDS011;2783;48.730;8.006;2022-09-23T03:45:32;8.52;;;5.45;;
5521;SDS011;2783;48.730;8.006;2022-09-23T03:47:58;11.23;;;5.78;;
5521;SDS011;2783;48.730;8.006;2022-09-23T03:50:24;9.40;;;5.82;;
5521;SDS011;2783;48.730;8.006;2022-09-23T03:52:51;9.25;;;5.47;;
5521;SDS011;2783;48.730;8.006;2022-09-23T03:55:17;8.30;;;5.28;;
5521;SDS011;2783;48.730;8.006;2022-09-23T03:57:43;12.30;;;5.60;;
5521;SDS011;2783;48.730;8.006;2022-09-23T04:00:09;8.73;;;5.05;;
5521;SDS011;2783;48.730;8.006;2022-09-23T04:02:36;8.73;;;5.53;;
5521;SDS011;2783;48.730;8.006;2022-09-23T04:05:01;8.88;;;5.10;;
5521;SDS011;2783;48.730;8.006;2022-09-23T04:07:27;10.85;;;5.40;;
5521;SDS011;2783;48.730;8.006;2022-09-23T04:09:52;10.35;;;6.63;;
5521;SDS011;2783;48.730;8.006;2022-09-23T04:12:18;8.32;;;5.05;;
5521;SDS011;2783;48.730;8.006;2022-09-23T04:14:44;8.82;;;5.53;;
5521;SDS011;2783;48.730;8.006;2022-09-23T04:17:10;10.45;;;5.22;;
5521;SDS011;2783;48.730;8.006;2022-09-23T04:19:36;8.48;;;4.50;;
5521;SDS011;2783;48.730;8.006;2022-09-23T04:22:01;13.75;;;6.90;;
5521;SDS011;2783;48.730;8.006;2022-09-23T04:24:27;8.40;;;5.32;;
5521;SDS011;2783;48.730;8.006;2022-09-23T04:26:53;8.98;;;5.28;;
5521;SDS011;2783;48.730;8.006;2022-09-23T04:29:20;11.00;;;5.53;;
5521;SDS011;2783;48.730;8.006;2022-09-23T04:31:47;12.07;;;5.70;;
5521;SDS011;2783;48.730;8.006;2022-09-23T04:34:13;10.70;;;6.63;;
5521;SDS011;2783;48.730;8.006;2022-09-23T04:36:41;12.93;;;6.40;;
5521;SDS011;2783;48.730;8.006;2022-09-23T04:39:08;9.90;;;5.60;;
5521;SDS011;2783;48.730;8.006;2022-09-23T04:41:34;11.00;;;5.55;;
5521;SDS011;2783;48.730;8.006;2022-09-23T04:44:00;8.88;;;6.20;;
5521;SDS011;2783;48.730;8.006;2022-09-23T04:46:25;9.13;;;5.85;;
5521;SDS011;2783;48.730;8.006;2022-09-23T04:48:51;10.45;;;6.00;;
5521;SDS011;2783;48.730;8.006;2022-09-23T04:51:18;8.38;;;5.97;;
5521;SDS011;2783;48.730;8.006;2022-09-23T04:53:46;9.68;;;5.57;;
5521;SDS011;2783;48.730;8.006;2022-09-23T04:56:20;11.40;;;5.88;;
5521;SDS011;2783;48.730;8.006;2022-09-23T04:58:47;10.90;;;6.55;;
5521;SDS011;2783;48.730;8.006;2022-09-23T05:01:15;14.65;;;6.20;;
5521;SDS011;2783;48.730;8.006;2022-09-23T05:04:09;10.75;;;6.25;;
5521;SDS011;2783;48.730;8.006;2022-09-23T05:06:37;10.52;;;6.15;;
5521;SDS011;2783;48.730;8.006;2022-09-23T05:09:04;9.05;;;5.13;;
5521;SDS011;2783;48.730;8.006;2022-09-23T05:11:31;10.48;;;5.65;;
5521;SDS011;2783;48.730;8.006;2022-09-23T05:13:57;10.18;;;6.20;;
5521;SDS011;2783;48.730;8.006;2022-09-23T05:16:22;9.80;;;5.32;;
5521;SDS011;2783;48.730;8.006;2022-09-23T05:18:49;8.85;;;5.85;;
5521;SDS011;2783;48.730;8.006;2022-09-23T05:21:16;10.02;;;5.95;;
5521;SDS011;2783;48.730;8.006;2022-09-23T05:23:46;17.65;;;6.47;;
5521;SDS011;2783;48.730;8.006;2022-09-23T05:26:24;13.80;;;6.63;;
5521;SDS011;2783;48.730;8.006;2022-09-23T05:28:52;16.65;;;5.70;;
5521;SDS011;2783;48.730;8.006;2022-09-23T05:31:19;14.38;;;6.57;;
5521;SDS011;2783;48.730;8.006;2022-09-23T05:33:47;8.70;;;4.97;;
5521;SDS011;2783;48.730;8.006;2022-09-23T05:36:16;11.52;;;5.97;;
5521;SDS011;2783;48.730;8.006;2022-09-23T05:38:42;10.02;;;6.30;;
5521;SDS011;2783;48.730;8.006;2022-09-23T05:41:11;12.63;;;7.15;;
5521;SDS011;2783;48.730;8.006;2022-09-23T05:43:37;12.52;;;6.35;;
5521;SDS011;2783;48.730;8.006;2022-09-23T05:46:13;11.52;;;6.50;;
5521;SDS011;2783;48.730;8.006;2022-09-23T05:48:40;11.57;;;7.05;;
5521;SDS011;2783;48.730;8.006;2022-09-23T05:51:07;9.73;;;6.43;;
5521;SDS011;2783;48.730;8.006;2022-09-23T05:53:37;14.20;;;7.30;;
5521;SDS011;2783;48.730;8.006;2022-09-23T05:56:03;11.18;;;6.57;;
5521;SDS011;2783;48.730;8.006;2022-09-23T05:58:29;12.73;;;7.47;;
5521;SDS011;2783;48.730;8.006;2022-09-23T06:00:55;12.00;;;6.05;;
5521;SDS011;2783;48.730;8.006;2022-09-23T06:03:21;10.85;;;7.30;;
5521;SDS011;2783;48.730;8.006;2022-09-23T06:05:47;11.40;;;7.00;;
5521;SDS011;2783;48.730;8.006;2022-09-23T06:08:16;12.43;;;7.20;;
5521;SDS011;2783;48.730;8.006;2022-09-23T06:10:43;10.95;;;7.07;;
5521;SDS011;2783;48.730;8.006;2022-09-23T06:13:10;12.95;;;7.28;;
5521;SDS011;2783;48.730;8.006;2022-09-23T06:15:35;14.63;;;8.45;;
5521;SDS011;2783;48.730;8.006;2022-09-23T06:18:02;13.70;;;8.18;;
5521;SDS011;2783;48.730;8.006;2022-09-23T06:20:28;14.15;;;7.82;;
5521;SDS011;2783;48.730;8.006;2022-09-23T06:22:53;16.95;;;9.77;;
5521;SDS011;2783;48.730;8.006;2022-09-23T06:25:21;15.38;;;8.57;;
5521;SDS011;2783;48.730;8.006;2022-09-23T06:27:52;14.52;;;7.32;;
5521;SDS011;2783;48.730;8.006;2022-09-23T06:30:19;11.20;;;7.15;;
5521;SDS011;2783;48.730;8.006;2022-09-23T06:32:48;15.60;;;7.35;;
5521;SDS011;2783;48.730;8.006;2022-09-23T06:35:21;11.45;;;6.82;;
5521;SDS011;2783;48.730;8.006;2022-09-23T06:37:49;13.73;;;6.95;;
5521;SDS011;2783;48.730;8.006;2022-09-23T06:40:14;9.48;;;5.78;;
5521;SDS011;2783;48.730;8.006;2022-09-23T06:42:40;9.95;;;5.82;;
5521;SDS011;2783;48.730;8.006;2022-09-23T06:45:06;8.65;;;5.47;;
5521;SDS011;2783;48.730;8.006;2022-09-23T06:47:37;8.57;;;5.65;;
5521;SDS011;2783;48.730;8.006;2022-09-23T06:50:03;8.88;;;5.72;;
5521;SDS011;2783;48.730;8.006;2022-09-23T06:52:29;8.80;;;5.18;;
5521;SDS011;2783;48.730;8.006;2022-09-23T06:54:55;15.10;;;7.05;;
5521;SDS011;2783;48.730;8.006;2022-09-23T06:57:20;9.07;;;5.25;;
5521;SDS011;2783;48.730;8.006;2022-09-23T06:59:46;8.23;;;5.32;;
5521;SDS011;2783;48.730;8.006;2022-09-23T07:02:11;7.72;;;4.97;;
5521;SDS011;2783;48.730;8.006;2022-09-23T07:04:37;7.03;;;4.53;;
5521;SDS011;2783;48.730;8.006;2022-09-23T07:07:02;8.18;;;5.15;;
5521;SDS011;2783;48.730;8.006;2022-09-23T07:09:28;9.75;;;5.13;;
5521;SDS011;2783;48.730;8.006;2022-09-23T07:11:53;9.60;;;5.93;;
5521;SDS011;2783;48.730;8.006;2022-09-23T07:14:19;11.18;;;5.60;;
5521;SDS011;2783;48.730;8.006;2022-09-23T07:16:47;7.75;;;5.30;;
5521;SDS011;2783;48.730;8.006;2022-09-23T07:19:13;9.93;;;5.43;;
5521;SDS011;2783;48.730;8.006;2022-09-23T07:21:38;9.38;;;5.35;;
5521;SDS011;2783;48.730;8.006;2022-09-23T07:24:04;8.13;;;5.18;;
5521;SDS011;2783;48.730;8.006;2022-09-23T07:26:29;7.95;;;5.30;;
5521;SDS011;2783;48.730;8.006;2022-09-23T07:28:58;11.48;;;5.38;;
5521;SDS011;2783;48.730;8.006;2022-09-23T07:31:29;9.43;;;5.18;;
5521;SDS011;2783;48.730;8.006;2022-09-23T07:33:56;10.57;;;4.72;;
5521;SDS011;2783;48.730;8.006;2022-09-23T07:36:22;9.02;;;4.90;;
5521;SDS011;2783;48.730;8.006;2022-09-23T07:38:48;7.82;;;5.07;;
5521;SDS011;2783;48.730;8.006;2022-09-23T07:41:15;8.75;;;5.13;;
5521;SDS011;2783;48.730;8.006;2022-09-23T07:43:42;8.75;;;4.57;;
5521;SDS011;2783;48.730;8.006;2022-09-23T07:46:10;7.05;;;4.57;;
5521;SDS011;2783;48.730;8.006;2022-09-23T07:48:40;6.47;;;4.10;;
5521;SDS011;2783;48.730;8.006;2022-09-23T07:51:10;6.75;;;4.43;;
5521;SDS011;2783;48.730;8.006;2022-09-23T07:53:38;7.90;;;4.70;;
5521;SDS011;2783;48.730;8.006;2022-09-23T07:56:03;8.38;;;3.90;;
5521;SDS011;2783;48.730;8.006;2022-09-23T07:58:32;6.60;;;3.80;;
5521;SDS011;2783;48.730;8.006;2022-09-23T08:01:03;5.43;;;3.53;;
5521;SDS011;2783;48.730;8.006;2022-09-23T08:03:30;5.90;;;3.67;;
5521;SDS011;2783;48.730;8.006;2022-09-23T08:06:05;5.90;;;3.38;;
5521;SDS011;2783;48.730;8.006;2022-09-23T08:08:37;8.90;;;4.28;;
5521;SDS011;2783;48.730;8.006;2022-09-23T08:11:05;6.47;;;4.15;;
5521;SDS011;2783;48.730;8.006;2022-09-23T08:13:33;7.07;;;4.25;;
5521;SDS011;2783;48.730;8.006;2022-09-23T08:15:59;7.07;;;4.20;;
5521;SDS011;2783;48.730;8.006;2022-09-23T08:18:24;7.18;;;4.70;;
5521;SDS011;2783;48.730;8.006;2022-09-23T08:20:50;9.05;;;4.30;;
5521;SDS011;2783;48.730;8.006;2022-09-23T08:23:16;7.10;;;4.20;;
5521;SDS011;2783;48.730;8.006;2022-09-23T08:25:42;6.72;;;4.55;;
5521;SDS011;2783;48.730;8.006;2022-09-23T08:28:10;8.10;;;3.85;;
5521;SDS011;2783;48.730;8.006;2022-09-23T08:30:38;6.63;;;4.10;;
5521;SDS011;2783;48.730;8.006;2022-09-23T08:33:03;10.70;;;5.03;;
5521;SDS011;2783;48.730;8.006;2022-09-23T08:35:29;6.28;;;4.32;;
5521;SDS011;2783;48.730;8.006;2022-09-23T08:37:54;7.47;;;3.92;;
5521;SDS011;2783;48.730;8.006;2022-09-23T08:40:20;10.48;;;4.47;;
5521;SDS011;2783;48.730;8.006;2022-09-23T08:42:45;6.45;;;4.07;;
5521;SDS011;2783;48.730;8.006;2022-09-23T08:45:14;5.35;;;3.88;;
5521;SDS011;2783;48.730;8.006;2022-09-23T08:47:47;6.80;;;4.05;;
5521;SDS011;2783;48.730;8.006;2022-09-23T08:50:22;6.28;;;4.15;;
5521;SDS011;2783;48.730;8.006;2022-09-23T08:52:57;7.85;;;4.68;;
5521;SDS011;2783;48.730;8.006;2022-09-23T08:55:34;7.45;;;4.20;;
5521;SDS011;2783;48.730;8.006;2022-09-23T09:00:55;7.68;;;3.85;;
5521;SDS011;2783;48.730;8.006;2022-09-23T09:03:34;6.35;;;3.42;;
5521;SDS011;2783;48.730;8.006;2022-09-23T09:06:05;5.82;;;3.25;;
5521;SDS011;2783;48.730;8.006;2022-09-23T09:08:36;6.95;;;3.72;;
5521;SDS011;2783;48.730;8.006;2022-09-23T09:11:03;8.32;;;3.45;;
5521;SDS011;2783;48.730;8.006;2022-09-23T09:13:34;5.95;;;3.30;;
5521;SDS011;2783;48.730;8.006;2022-09-23T09:16:15;6.03;;;3.17;;
5521;SDS011;2783;48.730;8.006;2022-09-23T09:19:06;5.32;;;3.33;;
5521;SDS011;2783;48.730;8.006;2022-09-23T09:21:39;6.45;;;3.10;;
5521;SDS011;2783;48.730;8.006;2022-09-23T09:24:12;6.35;;;2.60;;
5521;SDS011;2783;48.730;8.006;2022-09-23T09:27:04;7.15;;;2.53;;
5521;SDS011;2783;48.730;8.006;2022-09-23T09:29:36;4.72;;;2.80;;
5521;SDS011;2783;48.730;8.006;2022-09-23T09:32:17;8.80;;;3.55;;
5521;SDS011;2783;48.730;8.006;2022-09-23T09:34:50;4.07;;;2.63;;
5521;SDS011;2783;48.730;8.006;2022-09-23T09:37:32;5.63;;;2.40;;
5521;SDS011;2783;48.730;8.006;2022-09-23T09:40:01;6.03;;;3.22;;
5521;SDS011;2783;48.730;8.006;2022-09-23T09:42:37;4.57;;;2.60;;
5521;SDS011;2783;48.730;8.006;2022-09-23T09:47:49;4.88;;;2.65;;
5521;SDS011;2783;48.730;8.006;2022-09-23T09:50:40;5.47;;;2.88;;
5521;SDS011;2783;48.730;8.006;2022-09-23T09:53:30;5.30;;;2.45;;
5521;SDS011;2783;48.730;8.006;2022-09-23T09:56:01;5.57;;;2.80;;
5521;SDS011;2783;48.730;8.006;2022-09-23T09:58:29;5.32;;;2.50;;
5521;SDS011;2783;48.730;8.006;2022-09-23T10:00:58;5.10;;;2.67;;
5521;SDS011;2783;48.730;8.006;2022-09-23T10:03:25;4.82;;;2.28;;
5521;SDS011;2783;48.730;8.006;2022-09-23T10:05:57;5.35;;;3.00;;
5521;SDS011;2783;48.730;8.006;2022-09-23T10:11:03;4.50;;;3.03;;
5521;SDS011;2783;48.730;8.006;2022-09-23T10:13:37;6.25;;;2.97;;
5521;SDS011;2783;48.730;8.006;2022-09-23T10:16:03;4.75;;;2.80;;
5521;SDS011;2783;48.730;8.006;2022-09-23T10:18:29;5.60;;;2.60;;
5521;SDS011;2783;48.730;8.006;2022-09-23T10:20:59;5.32;;;2.75;;
5521;SDS011;2783;48.730;8.006;2022-09-23T10:23:27;5.13;;;2.97;;
5521;SDS011;2783;48.730;8.006;2022-09-23T10:25:58;6.57;;;2.63;;
5521;SDS011;2783;48.730;8.006;2022-09-23T10:31:20;4.18;;;2.28;;
5521;SDS011;2783;48.730;8.006;2022-09-23T10:33:49;5.43;;;2.58;;
5521;SDS011;2783;48.730;8.006;2022-09-23T10:36:24;5.28;;;2.42;;
5521;SDS011;2783;48.730;8.006;2022-09-23T10:38:51;4.80;;;2.55;;
5521;SDS011;2783;48.730;8.006;2022-09-23T10:41:42;6.38;;;2.70;;
5521;SDS011;2783;48.730;8.006;2022-09-23T10:44:51;6.45;;;3.13;;
5521;SDS011;2783;48.730;8.006;2022-09-23T10:48:28;7.13;;;3.10;;
5521;SDS011;2783;48.730;8.006;2022-09-23T10:50:52;6.20;;;2.70;;
5521;SDS011;2783;48.730;8.006;2022-09-23T10:56:25;5.00;;;2.40;;
5521;SDS011;2783;48.730;8.006;2022-09-23T10:59:17;5.03;;;3.15;;
5521;SDS011;2783;48.730;8.006;2022-09-23T11:04:58;9.18;;;2.58;;
5521;SDS011;2783;48.730;8.006;2022-09-23T11:07:37;4.70;;;2.50;;
5521;SDS011;2783;48.730;8.006;2022-09-23T11:10:24;5.80;;;3.03;;
5521;SDS011;2783;48.730;8.006;2022-09-23T11:13:06;4.68;;;2.45;;
5521;SDS011;2783;48.730;8.006;2022-09-23T11:15:48;6.00;;;2.58;;
5521;SDS011;2783;48.730;8.006;2022-09-23T11:18:30;6.07;;;2.47;;
5521;SDS011;2783;48.730;8.006;2022-09-23T11:23:51;5.45;;;2.45;;
5521;SDS011;2783;48.730;8.006;2022-09-23T11:31:34;6.95;;;2.83;;
5521;SDS011;2783;48.730;8.006;2022-09-23T11:36:50;4.03;;;2.50;;
5521;SDS011;2783;48.730;8.006;2022-09-23T11:39:40;5.10;;;2.95;;
5521;SDS011;2783;48.730;8.006;2022-09-23T11:42:22;3.83;;;2.45;;
5521;SDS011;2783;48.730;8.006;2022-09-23T11:45:05;6.03;;;2.45;;
5521;SDS011;2783;48.730;8.006;2022-09-23T11:50:49;8.07;;;2.50;;
5521;SDS011;2783;48.730;8.006;2022-09-23T11:53:31;4.25;;;2.03;;
5521;SDS011;2783;48.730;8.006;2022-09-23T11:56:18;11.27;;;2.35;;
5521;SDS011;2783;48.730;8.006;2022-09-23T12:01:33;5.50;;;2.13;;
5521;SDS011;2783;48.730;8.006;2022-09-23T12:04:08;6.38;;;2.15;;
5521;SDS011;2783;48.730;8.006;2022-09-23T12:07:11;6.45;;;2.30;;
5521;SDS011;2783;48.730;8.006;2022-09-23T12:12:16;11.45;;;2.88;;
5521;SDS011;2783;48.730;8.006;2022-09-23T12:15:02;5.20;;;2.20;;
5521;SDS011;2783;48.730;8.006;2022-09-23T12:25:43;4.28;;;2.10;;
5521;SDS011;2783;48.730;8.006;2022-09-23T12:28:19;3.20;;;1.98;;
5521;SDS011;2783;48.730;8.006;2022-09-23T12:30:50;3.22;;;2.00;;
5521;SDS011;2783;48.730;8.006;2022-09-23T12:35:54;4.95;;;2.33;;
5521;SDS011;2783;48.730;8.006;2022-09-23T12:38:35;4.20;;;2.20;;
5521;SDS011;2783;48.730;8.006;2022-09-23T12:41:00;4.32;;;2.10;;
5521;SDS011;2783;48.730;8.006;2022-09-23T12:43:48;5.32;;;2.10;;
5521;SDS011;2783;48.730;8.006;2022-09-23T12:46:20;4.72;;;2.38;;
5521;SDS011;2783;48.730;8.006;2022-09-23T12:51:22;3.55;;;1.80;;
5521;SDS011;2783;48.730;8.006;2022-09-23T13:01:49;4.32;;;2.55;;
5521;SDS011;2783;48.730;8.006;2022-09-23T13:04:34;5.28;;;2.30;;
5521;SDS011;2783;48.730;8.006;2022-09-23T13:07:28;5.35;;;2.58;;
5521;SDS011;2783;48.730;8.006;2022-09-23T13:10:09;5.22;;;1.88;;
5521;SDS011;2783;48.730;8.006;2022-09-23T13:12:37;3.20;;;1.83;;
5521;SDS011;2783;48.730;8.006;2022-09-23T13:15:12;3.35;;;1.77;;
5521;SDS011;2783;48.730;8.006;2022-09-23T13:17:41;3.35;;;1.70;;
5521;SDS011;2783;48.730;8.006;2022-09-23T13:25:17;3.50;;;2.00;;
5521;SDS011;2783;48.730;8.006;2022-09-23T13:27:56;4.10;;;1.95;;
5521;SDS011;2783;48.730;8.006;2022-09-23T13:30:24;6.85;;;1.90;;
5521;SDS011;2783;48.730;8.006;2022-09-23T13:33:00;4.22;;;1.80;;
5521;SDS011;2783;48.730;8.006;2022-09-23T13:35:34;6.40;;;2.20;;
5521;SDS011;2783;48.730;8.006;2022-09-23T13:38:08;6.32;;;2.13;;
5521;SDS011;2783;48.730;8.006;2022-09-23T13:40:35;5.80;;;2.40;;
5521;SDS011;2783;48.730;8.006;2022-09-23T13:43:03;8.40;;;2.50;;
5521;SDS011;2783;48.730;8.006;2022-09-23T13:45:34;6.78;;;2.03;;
5521;SDS011;2783;48.730;8.006;2022-09-23T13:48:04;4.97;;;1.92;;
5521;SDS011;2783;48.730;8.006;2022-09-23T13:50:32;3.28;;;1.90;;
5521;SDS011;2783;48.730;8.006;2022-09-23T13:53:05;10.02;;;2.47;;
5521;SDS011;2783;48.730;8.006;2022-09-23T13:55:34;3.25;;;1.63;;
5521;SDS011;2783;48.730;8.006;2022-09-23T13:58:20;7.63;;;2.20;;
5521;SDS011;2783;48.730;8.006;2022-09-23T14:00:48;4.22;;;1.95;;
5521;SDS011;2783;48.730;8.006;2022-09-23T14:03:20;6.72;;;2.05;;
5521;SDS011;2783;48.730;8.006;2022-09-23T14:05:55;7.57;;;2.10;;
5521;SDS011;2783;48.730;8.006;2022-09-23T14:08:23;7.68;;;2.38;;
5521;SDS011;2783;48.730;8.006;2022-09-23T14:10:49;3.35;;;1.75;;
5521;SDS011;2783;48.730;8.006;2022-09-23T14:13:16;4.85;;;1.77;;
5521;SDS011;2783;48.730;8.006;2022-09-23T14:15:45;3.53;;;1.92;;
5521;SDS011;2783;48.730;8.006;2022-09-23T14:18:16;4.63;;;2.30;;
5521;SDS011;2783;48.730;8.006;2022-09-23T14:20:47;4.88;;;2.35;;
5521;SDS011;2783;48.730;8.006;2022-09-23T14:23:14;5.50;;;2.65;;
5521;SDS011;2783;48.730;8.006;2022-09-23T14:25:43;3.25;;;2.00;;
5521;SDS011;2783;48.730;8.006;2022-09-23T14:28:28;4.55;;;1.70;;
5521;SDS011;2783;48.730;8.006;2022-09-23T14:30:54;4.70;;;2.25;;
5521;SDS011;2783;48.730;8.006;2022-09-23T14:33:24;5.82;;;2.20;;
5521;SDS011;2783;48.730;8.006;2022-09-23T14:35:53;3.47;;;1.60;;
5521;SDS011;2783;48.730;8.006;2022-09-23T14:38:25;4.88;;;1.83;;
5521;SDS011;2783;48.730;8.006;2022-09-23T14:41:15;5.30;;;2.38;;
5521;SDS011;2783;48.730;8.006;2022-09-23T14:43:55;2.90;;;1.60;;
5521;SDS011;2783;48.730;8.006;2022-09-23T14:46:23;5.78;;;1.77;;
5521;SDS011;2783;48.730;8.006;2022-09-23T14:49:02;5.70;;;2.15;;
5521;SDS011;2783;48.730;8.006;2022-09-23T14:51:49;8.50;;;1.90;;
5521;SDS011;2783;48.730;8.006;2022-09-23T14:54:36;6.30;;;2.20;;
5521;SDS011;2783;48.730;8.006;2022-09-23T15:02:31;10.43;;;2.65;;
5521;SDS011;2783;48.730;8.006;2022-09-23T15:05:17;9.40;;;2.97;;
5521;SDS011;2783;48.730;8.006;2022-09-23T15:07:54;7.85;;;2.33;;
5521;SDS011;2783;48.730;8.006;2022-09-23T15:10:24;8.68;;;1.98;;
5521;SDS011;2783;48.730;8.006;2022-09-23T15:12:52;3.72;;;2.10;;
5521;SDS011;2783;48.730;8.006;2022-09-23T15:15:22;6.43;;;1.95;;
5521;SDS011;2783;48.730;8.006;2022-09-23T15:17:52;5.65;;;2.22;;
5521;SDS011;2783;48.730;8.006;2022-09-23T15:20:22;10.57;;;2.85;;
5521;SDS011;2783;48.730;8.006;2022-09-23T15:22:51;8.35;;;1.80;;
5521;SDS011;2783;48.730;8.006;2022-09-23T15:25:19;3.65;;;1.90;;
5521;SDS011;2783;48.730;8.006;2022-09-23T15:30:39;5.25;;;2.40;;
5521;SDS011;2783;48.730;8.006;2022-09-23T15:33:05;4.57;;;2.25;;
5521;SDS011;2783;48.730;8.006;2022-09-23T15:35:31;3.08;;;1.98;;
5521;SDS011;2783;48.730;8.006;2022-09-23T15:37:57;8.32;;;2.20;;
5521;SDS011;2783;48.730;8.006;2022-09-23T15:40:32;4.22;;;2.33;;
5521;SDS011;2783;48.730;8.006;2022-09-23T15:43:02;5.20;;;2.15;;
5521;SDS011;2783;48.730;8.006;2022-09-23T15:45:41;3.72;;;1.98;;
5521;SDS011;2783;48.730;8.006;2022-09-23T15:48:10;5.07;;;2.13;;
5521;SDS011;2783;48.730;8.006;2022-09-23T15:50:39;3.35;;;1.95;;
5521;SDS011;2783;48.730;8.006;2022-09-23T15:53:14;4.63;;;2.25;;
5521;SDS011;2783;48.730;8.006;2022-09-23T15:55:44;5.72;;;2.17;;
5521;SDS011;2783;48.730;8.006;2022-09-23T15:58:10;5.80;;;1.77;;
5521;SDS011;2783;48.730;8.006;2022-09-23T16:00:36;8.27;;;2.40;;
5521;SDS011;2783;48.730;8.006;2022-09-23T16:03:02;13.60;;;2.20;;
5521;SDS011;2783;48.730;8.006;2022-09-23T16:05:34;2.78;;;1.83;;
5521;SDS011;2783;48.730;8.006;2022-09-23T16:08:05;3.90;;;1.90;;
5521;SDS011;2783;48.730;8.006;2022-09-23T16:10:32;3.60;;;1.92;;
5521;SDS011;2783;48.730;8.006;2022-09-23T16:12:59;8.45;;;2.10;;
5521;SDS011;2783;48.730;8.006;2022-09-23T16:15:26;2.88;;;1.95;;
5521;SDS011;2783;48.730;8.006;2022-09-23T16:17:53;5.00;;;2.20;;
5521;SDS011;2783;48.730;8.006;2022-09-23T16:20:19;4.57;;;2.05;;
5521;SDS011;2783;48.730;8.006;2022-09-23T16:22:51;6.38;;;1.95;;
5521;SDS011;2783;48.730;8.006;2022-09-23T16:25:20;3.10;;;2.10;;
5521;SDS011;2783;48.730;8.006;2022-09-23T16:27:52;3.78;;;2.00;;
5521;SDS011;2783;48.730;8.006;2022-09-23T16:30:19;4.63;;;1.90;;
5521;SDS011;2783;48.730;8.006;2022-09-23T16:32:49;4.40;;;1.90;;
5521;SDS011;2783;48.730;8.006;2022-09-23T16:35:16;4.75;;;2.40;;
5521;SDS011;2783;48.730;8.006;2022-09-23T16:37:43;4.40;;;2.50;;
5521;SDS011;2783;48.730;8.006;2022-09-23T16:40:11;5.38;;;2.13;;
5521;SDS011;2783;48.730;8.006;2022-09-23T16:42:40;6.20;;;2.10;;
5521;SDS011;2783;48.730;8.006;2022-09-23T16:45:05;4.63;;;2.03;;
5521;SDS011;2783;48.730;8.006;2022-09-23T16:47:31;5.80;;;2.17;;
5521;SDS011;2783;48.730;8.006;2022-09-23T16:49:56;2.92;;;1.83;;
5521;SDS011;2783;48.730;8.006;2022-09-23T16:52:22;4.72;;;2.40;;
5521;SDS011;2783;48.730;8.006;2022-09-23T16:54:47;5.68;;;2.25;;
5521;SDS011;2783;48.730;8.006;2022-09-23T16:57:13;5.97;;;2.58;;
5521;SDS011;2783;48.730;8.006;2022-09-23T16:59:39;5.05;;;2.75;;
5521;SDS011;2783;48.730;8.006;2022-09-23T17:02:23;3.60;;;2.10;;
5521;SDS011;2783;48.730;8.006;2022-09-23T17:05:07;6.82;;;2.80;;
5521;SDS011;2783;48.730;8.006;2022-09-23T17:07:32;22.45;;;13.10;;
5521;SDS011;2783;48.730;8.006;2022-09-23T17:09:58;18.85;;;9.73;;
5521;SDS011;2783;48.730;8.006;2022-09-23T17:12:27;11.55;;;4.93;;
5521;SDS011;2783;48.730;8.006;2022-09-23T17:14:59;8.52;;;3.25;;
5521;SDS011;2783;48.730;8.006;2022-09-23T17:17:24;4.85;;;2.60;;
5521;SDS011;2783;48.730;8.006;2022-09-23T17:19:52;5.70;;;2.63;;
5521;SDS011;2783;48.730;8.006;2022-09-23T17:22:17;5.30;;;2.80;;
5521;SDS011;2783;48.730;8.006;2022-09-23T17:24:43;5.35;;;3.20;;
5521;SDS011;2783;48.730;8.006;2022-09-23T17:27:08;9.07;;;2.97;;
5521;SDS011;2783;48.730;8.006;2022-09-23T17:29:33;7.13;;;3.50;;
5521;SDS011;2783;48.730;8.006;2022-09-23T17:31:59;5.20;;;2.88;;
5521;SDS011;2783;48.730;8.006;2022-09-23T17:34:24;6.60;;;3.13;;
5521;SDS011;2783;48.730;8.006;2022-09-23T17:36:50;6.95;;;2.75;;